sensor_id;sensor_type;location;lat;lon;timestamp;temperature;humidity
3919;DHT22;1974;48.670;8.994;2023-12-20T00:00:10;5.80;99.90
3919;DHT22;1974;48.670;8.994;2023-12-20T00:02:37;5.80;99.90
3919;DHT22;1974;48.670;8.994;2023-12-20T00:05:05;5.80;99.90
3919;DHT22;1974;48.670;8.994;2023-12-20T00:07:31;5.80;99.90
3919;DHT22;1974;48.670;8.994;2023-12-20T00:09:58;5.80;99.90
3919;DHT22;1974;48.670;8.994;2023-12-20T00:12:25;5.80;99.90
3919;DHT22;1974;48.670;8.994;2023-12-20T00:14:53;5.90;99.90
3919;DHT22;1974;48.670;8.994;2023-12-20T00:17:20;5.80;99.90
3919;DHT22;1974;48.670;8.994;2023-12-20T00:19:46;5.80;99.90
3919;DHT22;1974;48.670;8.994;2023-12-20T00:22:13;5.80;99.90
3919;DHT22;1974;48.670;8.994;2023-12-20T00:24:40;5.80;99.90
3919;DHT22;1974;48.670;8.994;2023-12-20T00:27:06;5.70;99.90
3919;DHT22;1974;48.670;8.994;2023-12-20T00:29:33;5.80;99.90
3919;DHT22;1974;48.670;8.994;2023-12-20T00:32:01;5.60;99.90
3919;DHT22;1974;48.670;8.994;2023-12-20T00:34:28;5.60;99.90
3919;DHT22;1974;48.670;8.994;2023-12-20T00:36:54;5.50;99.90
3919;DHT22;1974;48.670;8.994;2023-12-20T00:39:21;5.60;99.90
3919;DHT22;1974;48.670;8.994;2023-12-20T00:41:48;5.50;99.90
3919;DHT22;1974;48.670;8.994;2023-12-20T00:44:14;5.40;99.90
3919;DHT22;1974;48.670;8.994;2023-12-20T00:46:41;5.30;99.90
3919;DHT22;1974;48.670;8.994;2023-12-20T00:49:09;5.30;99.90
3919;DHT22;1974;48.670;8.994;2023-12-20T00:51:36;5.40;99.90
3919;DHT22;1974;48.670;8.994;2023-12-20T00:54:02;5.30;99.90
3919;DHT22;1974;48.670;8.994;2023-12-20T00:56:29;5.20;99.90
3919;DHT22;1974;48.670;8.994;2023-12-20T00:58:56;5.20;99.90
3919;DHT22;1974;48.670;8.994;2023-12-20T01:01:22;5.30;99.90
3919;DHT22;1974;48.670;8.994;2023-12-20T01:03:49;5.30;99.90
3919;DHT22;1974;48.670;8.994;2023-12-20T01:06:18;5.30;99.90
3919;DHT22;1974;48.670;8.994;2023-12-20T01:08:45;5.30;99.90
3919;DHT22;1974;48.670;8.994;2023-12-20T01:11:11;5.30;99.90
3919;DHT22;1974;48.670;8.994;2023-12-20T01:13:38;5.30;99.90
3919;DHT22;1974;48.670;8.994;2023-12-20T01:16:05;5.20;99.90
3919;DHT22;1974;48.670;8.994;2023-12-20T01:18:32;5.20;99.90
3919;DHT22;1974;48.670;8.994;2023-12-20T01:21:01;5.10;99.90
3919;DHT22;1974;48.670;8.994;2023-12-20T01:23:30;5.10;99.90
3919;DHT22;1974;48.670;8.994;2023-12-20T01:25:57;5.10;99.90
3919;DHT22;1974;48.670;8.994;2023-12-20T01:28:25;5.10;99.90
3919;DHT22;1974;48.670;8.994;2023-12-20T01:30:52;5.10;99.90
3919;DHT22;1974;48.670;8.994;2023-12-20T01:33:18;5.00;99.90
3919;DHT22;1974;48.670;8.994;2023-12-20T01:35:45;5.00;99.90
3919;DHT22;1974;48.670;8.994;2023-12-20T01:38:12;5.00;99.90
3919;DHT22;1974;48.670;8.994;2023-12-20T01:40:40;5.10;99.90
3919;DHT22;1974;48.670;8.994;2023-12-20T01:43:07;5.10;99.90
3919;DHT22;1974;48.670;8.994;2023-12-20T01:45:35;5.10;99.90
3919;DHT22;1974;48.670;8.994;2023-12-20T01:48:02;5.20;99.90
3919;DHT22;1974;48.670;8.994;2023-12-20T01:50:31;5.10;99.90
3919;DHT22;1974;48.670;8.994;2023-12-20T01:53:00;5.20;99.90
3919;DHT22;1974;48.670;8.994;2023-12-20T01:55:29;5.20;99.90
3919;DHT22;1974;48.670;8.994;2023-12-20T01:57:58;5.10;99.90
3919;DHT22;1974;48.670;8.994;2023-12-20T02:00:26;5.10;99.90
3919;DHT22;1974;48.670;8.994;2023-12-20T02:02:54;5.10;99.90
3919;DHT22;1974;48.670;8.994;2023-12-20T02:05:21;5.10;99.90
3919;DHT22;1974;48.670;8.994;2023-12-20T02:07:48;5.10;99.90
3919;DHT22;1974;48.670;8.994;2023-12-20T02:10:15;5.10;99.90
3919;DHT22;1974;48.670;8.994;2023-12-20T02:12:42;5.10;99.90
3919;DHT22;1974;48.670;8.994;2023-12-20T02:15:10;5.20;99.90
3919;DHT22;1974;48.670;8.994;2023-12-20T02:17:38;5.20;99.90
3919;DHT22;1974;48.670;8.994;2023-12-20T02:20:07;5.10;99.90
3919;DHT22;1974;48.670;8.994;2023-12-20T02:22:36;5.20;99.90
3919;DHT22;1974;48.670;8.994;2023-12-20T02:25:03;5.10;99.90
3919;DHT22;1974;48.670;8.994;2023-12-20T02:27:30;5.10;99.90
3919;DHT22;1974;48.670;8.994;2023-12-20T02:29:57;5.10;99.90
3919;DHT22;1974;48.670;8.994;2023-12-20T02:32:24;5.10;99.90
3919;DHT22;1974;48.670;8.994;2023-12-20T02:34:52;5.10;99.90
3919;DHT22;1974;48.670;8.994;2023-12-20T02:37:18;5.10;99.90
3919;DHT22;1974;48.670;8.994;2023-12-20T02:39:46;5.20;99.90
3919;DHT22;1974;48.670;8.994;2023-12-20T02:42:13;5.20;99.90
3919;DHT22;1974;48.670;8.994;2023-12-20T02:44:40;5.20;99.90
3919;DHT22;1974;48.670;8.994;2023-12-20T02:47:07;5.10;99.90
3919;DHT22;1974;48.670;8.994;2023-12-20T02:49:33;5.20;99.90
3919;DHT22;1974;48.670;8.994;2023-12-20T02:52:00;5.10;99.90
3919;DHT22;1974;48.670;8.994;2023-12-20T02:54:27;5.10;99.90
3919;DHT22;1974;48.670;8.994;2023-12-20T02:56:55;5.10;99.90
3919;DHT22;1974;48.670;8.994;2023-12-20T02:59:21;5.10;99.90
3919;DHT22;1974;48.670;8.994;2023-12-20T03:01:48;5.10;99.90
3919;DHT22;1974;48.670;8.994;2023-12-20T03:04:15;5.10;99.90
3919;DHT22;1974;48.670;8.994;2023-12-20T03:06:41;5.10;99.90
3919;DHT22;1974;48.670;8.994;2023-12-20T03:09:08;5.10;99.90
3919;DHT22;1974;48.670;8.994;2023-12-20T03:11:35;5.10;99.90
3919;DHT22;1974;48.670;8.994;2023-12-20T03:14:03;5.10;99.90
3919;DHT22;1974;48.670;8.994;2023-12-20T03:16:30;5.10;99.90
3919;DHT22;1974;48.670;8.994;2023-12-20T03:18:58;5.10;99.90
3919;DHT22;1974;48.670;8.994;2023-12-20T03:21:25;5.10;99.90
3919;DHT22;1974;48.670;8.994;2023-12-20T03:23:52;5.10;99.90
3919;DHT22;1974;48.670;8.994;2023-12-20T03:26:18;5.20;99.90
3919;DHT22;1974;48.670;8.994;2023-12-20T03:28:45;5.10;99.90
3919;DHT22;1974;48.670;8.994;2023-12-20T03:31:13;5.20;99.90
3919;DHT22;1974;48.670;8.994;2023-12-20T03:33:40;5.20;99.90
3919;DHT22;1974;48.670;8.994;2023-12-20T03:36:07;5.20;99.90
3919;DHT22;1974;48.670;8.994;2023-12-20T03:38:33;5.20;99.90
3919;DHT22;1974;48.670;8.994;2023-12-20T03:41:00;5.20;99.90
3919;DHT22;1974;48.670;8.994;2023-12-20T03:43:27;5.20;99.90
3919;DHT22;1974;48.670;8.994;2023-12-20T03:45:53;5.20;99.90
3919;DHT22;1974;48.670;8.994;2023-12-20T03:48:21;5.20;99.90
3919;DHT22;1974;48.670;8.994;2023-12-20T03:50:48;5.20;99.90
3919;DHT22;1974;48.670;8.994;2023-12-20T03:53:15;5.20;99.90
3919;DHT22;1974;48.670;8.994;2023-12-20T03:55:42;5.20;99.90
3919;DHT22;1974;48.670;8.994;2023-12-20T03:58:09;5.20;99.90
3919;DHT22;1974;48.670;8.994;2023-12-20T04:00:36;5.10;99.90
3919;DHT22;1974;48.670;8.994;2023-12-20T04:03:03;5.10;99.90
3919;DHT22;1974;48.670;8.994;2023-12-20T04:05:31;5.10;99.90
3919;DHT22;1974;48.670;8.994;2023-12-20T04:07:56;5.10;99.90
3919;DHT22;1974;48.670;8.994;2023-12-20T04:10:23;5.10;99.90
3919;DHT22;1974;48.670;8.994;2023-12-20T04:12:50;5.20;99.90
3919;DHT22;1974;48.670;8.994;2023-12-20T04:15:16;5.10;99.90
3919;DHT22;1974;48.670;8.994;2023-12-20T04:17:43;5.10;99.90
3919;DHT22;1974;48.670;8.994;2023-12-20T04:20:10;5.10;99.90
3919;DHT22;1974;48.670;8.994;2023-12-20T04:22:38;5.10;99.90
3919;DHT22;1974;48.670;8.994;2023-12-20T04:25:05;5.00;99.90
3919;DHT22;1974;48.670;8.994;2023-12-20T04:27:32;5.00;99.90
3919;DHT22;1974;48.670;8.994;2023-12-20T04:29:59;5.00;99.90
3919;DHT22;1974;48.670;8.994;2023-12-20T04:32:26;5.00;99.90
3919;DHT22;1974;48.670;8.994;2023-12-20T04:34:53;5.00;99.90
3919;DHT22;1974;48.670;8.994;2023-12-20T04:37:19;5.00;99.90
3919;DHT22;1974;48.670;8.994;2023-12-20T04:39:47;5.00;99.90
3919;DHT22;1974;48.670;8.994;2023-12-20T04:42:14;5.00;99.90
3919;DHT22;1974;48.670;8.994;2023-12-20T04:44:41;4.90;99.90
3919;DHT22;1974;48.670;8.994;2023-12-20T04:47:09;4.90;99.90
3919;DHT22;1974;48.670;8.994;2023-12-20T04:49:35;4.90;99.90
3919;DHT22;1974;48.670;8.994;2023-12-20T04:52:02;4.90;99.90
3919;DHT22;1974;48.670;8.994;2023-12-20T04:54:29;5.00;99.90
3919;DHT22;1974;48.670;8.994;2023-12-20T04:56:57;5.00;99.90
3919;DHT22;1974;48.670;8.994;2023-12-20T04:59:24;5.00;99.90
3919;DHT22;1974;48.670;8.994;2023-12-20T05:01:51;5.00;99.90
3919;DHT22;1974;48.670;8.994;2023-12-20T05:04:17;5.00;99.90
3919;DHT22;1974;48.670;8.994;2023-12-20T05:06:44;5.00;99.90
3919;DHT22;1974;48.670;8.994;2023-12-20T05:09:11;5.00;99.90
3919;DHT22;1974;48.670;8.994;2023-12-20T05:11:37;5.00;99.90
3919;DHT22;1974;48.670;8.994;2023-12-20T05:14:06;5.00;99.90
3919;DHT22;1974;48.670;8.994;2023-12-20T05:16:32;5.00;99.90
3919;DHT22;1974;48.670;8.994;2023-12-20T05:18:59;5.00;99.90
3919;DHT22;1974;48.670;8.994;2023-12-20T05:21:27;5.00;99.90
3919;DHT22;1974;48.670;8.994;2023-12-20T05:23:54;5.00;99.90
3919;DHT22;1974;48.670;8.994;2023-12-20T05:26:20;5.00;99.90
3919;DHT22;1974;48.670;8.994;2023-12-20T05:28:47;5.00;99.90
3919;DHT22;1974;48.670;8.994;2023-12-20T05:31:15;5.00;99.90
3919;DHT22;1974;48.670;8.994;2023-12-20T05:33:42;4.90;99.90
3919;DHT22;1974;48.670;8.994;2023-12-20T05:36:08;5.00;99.90
3919;DHT22;1974;48.670;8.994;2023-12-20T05:38:39;5.00;99.90
3919;DHT22;1974;48.670;8.994;2023-12-20T05:41:05;5.00;99.90
3919;DHT22;1974;48.670;8.994;2023-12-20T05:43:32;4.90;99.90
3919;DHT22;1974;48.670;8.994;2023-12-20T05:45:59;4.90;99.90
3919;DHT22;1974;48.670;8.994;2023-12-20T05:48:27;5.00;99.90
3919;DHT22;1974;48.670;8.994;2023-12-20T05:50:54;5.00;99.90
3919;DHT22;1974;48.670;8.994;2023-12-20T05:53:20;5.00;99.90
3919;DHT22;1974;48.670;8.994;2023-12-20T05:55:47;5.00;99.90
3919;DHT22;1974;48.670;8.994;2023-12-20T05:58:14;5.00;99.90
3919;DHT22;1974;48.670;8.994;2023-12-20T06:00:40;5.00;99.90
3919;DHT22;1974;48.670;8.994;2023-12-20T06:03:07;5.00;99.90
3919;DHT22;1974;48.670;8.994;2023-12-20T06:05:35;5.00;99.90
3919;DHT22;1974;48.670;8.994;2023-12-20T06:08:02;5.00;99.90
3919;DHT22;1974;48.670;8.994;2023-12-20T06:10:28;5.00;99.90
3919;DHT22;1974;48.670;8.994;2023-12-20T06:12:55;5.00;99.90
3919;DHT22;1974;48.670;8.994;2023-12-20T06:15:24;5.00;99.90
3919;DHT22;1974;48.670;8.994;2023-12-20T06:17:50;5.00;99.90
3919;DHT22;1974;48.670;8.994;2023-12-20T06:20:17;5.00;99.90
3919;DHT22;1974;48.670;8.994;2023-12-20T06:22:45;5.00;99.90
3919;DHT22;1974;48.670;8.994;2023-12-20T06:25:12;5.00;99.90
3919;DHT22;1974;48.670;8.994;2023-12-20T06:27:39;5.00;99.90
3919;DHT22;1974;48.670;8.994;2023-12-20T06:30:07;5.00;99.90
3919;DHT22;1974;48.670;8.994;2023-12-20T06:32:34;5.00;99.90
3919;DHT22;1974;48.670;8.994;2023-12-20T06:35:01;5.00;99.90
3919;DHT22;1974;48.670;8.994;2023-12-20T06:37:28;5.10;99.90
3919;DHT22;1974;48.670;8.994;2023-12-20T06:39:56;5.10;99.90
3919;DHT22;1974;48.670;8.994;2023-12-20T06:42:23;5.10;99.90
3919;DHT22;1974;48.670;8.994;2023-12-20T06:44:49;5.10;99.90
3919;DHT22;1974;48.670;8.994;2023-12-20T06:47:16;5.00;99.90
3919;DHT22;1974;48.670;8.994;2023-12-20T06:49:43;5.00;99.90
3919;DHT22;1974;48.670;8.994;2023-12-20T06:52:10;5.00;99.90
3919;DHT22;1974;48.670;8.994;2023-12-20T06:54:36;5.10;99.90
3919;DHT22;1974;48.670;8.994;2023-12-20T06:57:05;5.00;99.90
3919;DHT22;1974;48.670;8.994;2023-12-20T06:59:31;5.00;99.90
3919;DHT22;1974;48.670;8.994;2023-12-20T07:01:58;5.00;99.90
3919;DHT22;1974;48.670;8.994;2023-12-20T07:04:25;5.00;99.90
3919;DHT22;1974;48.670;8.994;2023-12-20T07:06:51;5.00;99.90
3919;DHT22;1974;48.670;8.994;2023-12-20T07:09:22;5.00;99.90
3919;DHT22;1974;48.670;8.994;2023-12-20T07:11:48;5.10;99.90
3919;DHT22;1974;48.670;8.994;2023-12-20T07:14:16;5.10;99.90
3919;DHT22;1974;48.670;8.994;2023-12-20T07:16:43;5.00;99.90
3919;DHT22;1974;48.670;8.994;2023-12-20T07:19:10;5.00;99.90
3919;DHT22;1974;48.670;8.994;2023-12-20T07:21:37;5.00;99.90
3919;DHT22;1974;48.670;8.994;2023-12-20T07:24:04;5.00;99.90
3919;DHT22;1974;48.670;8.994;2023-12-20T07:26:30;5.00;99.90
3919;DHT22;1974;48.670;8.994;2023-12-20T07:28:57;5.10;99.90
3919;DHT22;1974;48.670;8.994;2023-12-20T07:31:26;5.10;99.90
3919;DHT22;1974;48.670;8.994;2023-12-20T07:33:52;5.10;99.90
3919;DHT22;1974;48.670;8.994;2023-12-20T07:36:19;5.10;99.90
3919;DHT22;1974;48.670;8.994;2023-12-20T07:38:46;5.10;99.90
3919;DHT22;1974;48.670;8.994;2023-12-20T07:41:13;5.20;99.90
3919;DHT22;1974;48.670;8.994;2023-12-20T07:43:41;5.20;99.90
3919;DHT22;1974;48.670;8.994;2023-12-20T07:46:08;5.20;99.90
3919;DHT22;1974;48.670;8.994;2023-12-20T07:48:36;5.20;99.90
3919;DHT22;1974;48.670;8.994;2023-12-20T07:51:04;5.20;99.90
3919;DHT22;1974;48.670;8.994;2023-12-20T07:53:32;5.30;99.90
3919;DHT22;1974;48.670;8.994;2023-12-20T07:55:58;5.30;99.90
3919;DHT22;1974;48.670;8.994;2023-12-20T07:58:25;5.30;99.90
3919;DHT22;1974;48.670;8.994;2023-12-20T08:00:52;5.30;99.90
3919;DHT22;1974;48.670;8.994;2023-12-20T08:03:18;5.40;99.90
3919;DHT22;1974;48.670;8.994;2023-12-20T08:05:46;5.40;99.90
3919;DHT22;1974;48.670;8.994;2023-12-20T08:08:13;5.40;99.90
3919;DHT22;1974;48.670;8.994;2023-12-20T08:10:40;5.50;99.90
3919;DHT22;1974;48.670;8.994;2023-12-20T08:13:06;5.50;99.90
3919;DHT22;1974;48.670;8.994;2023-12-20T08:15:34;5.50;99.90
3919;DHT22;1974;48.670;8.994;2023-12-20T08:18:00;5.50;99.90
3919;DHT22;1974;48.670;8.994;2023-12-20T08:20:27;5.60;99.90
3919;DHT22;1974;48.670;8.994;2023-12-20T08:22:55;5.50;99.90
3919;DHT22;1974;48.670;8.994;2023-12-20T08:25:22;5.50;99.90
3919;DHT22;1974;48.670;8.994;2023-12-20T08:27:48;5.50;99.90
3919;DHT22;1974;48.670;8.994;2023-12-20T08:30:15;5.50;99.90
3919;DHT22;1974;48.670;8.994;2023-12-20T08:32:43;5.50;99.90
3919;DHT22;1974;48.670;8.994;2023-12-20T08:35:09;5.60;99.90
3919;DHT22;1974;48.670;8.994;2023-12-20T08:37:36;5.50;99.90
3919;DHT22;1974;48.670;8.994;2023-12-20T08:40:05;5.50;99.90
3919;DHT22;1974;48.670;8.994;2023-12-20T08:42:32;5.50;99.90
3919;DHT22;1974;48.670;8.994;2023-12-20T08:44:59;5.50;99.90
3919;DHT22;1974;48.670;8.994;2023-12-20T08:47:26;5.40;99.90
3919;DHT22;1974;48.670;8.994;2023-12-20T08:49:53;5.40;99.90
3919;DHT22;1974;48.670;8.994;2023-12-20T08:52:22;5.40;99.90
3919;DHT22;1974;48.670;8.994;2023-12-20T08:54:48;5.30;99.90
3919;DHT22;1974;48.670;8.994;2023-12-20T08:57:19;5.20;99.90
3919;DHT22;1974;48.670;8.994;2023-12-20T08:59:46;5.20;99.90
3919;DHT22;1974;48.670;8.994;2023-12-20T09:02:13;5.10;99.90
3919;DHT22;1974;48.670;8.994;2023-12-20T09:04:40;5.00;99.90
3919;DHT22;1974;48.670;8.994;2023-12-20T09:07:06;4.90;99.90
3919;DHT22;1974;48.670;8.994;2023-12-20T09:09:33;4.80;99.90
3919;DHT22;1974;48.670;8.994;2023-12-20T09:12:00;4.70;99.90
3919;DHT22;1974;48.670;8.994;2023-12-20T09:14:28;4.70;99.90
3919;DHT22;1974;48.670;8.994;2023-12-20T09:16:55;4.70;99.90
3919;DHT22;1974;48.670;8.994;2023-12-20T09:19:22;4.60;99.90
3919;DHT22;1974;48.670;8.994;2023-12-20T09:21:48;4.60;99.90
3919;DHT22;1974;48.670;8.994;2023-12-20T09:24:15;4.70;99.90
3919;DHT22;1974;48.670;8.994;2023-12-20T09:26:42;4.60;99.90
3919;DHT22;1974;48.670;8.994;2023-12-20T09:29:09;4.60;99.90
3919;DHT22;1974;48.670;8.994;2023-12-20T09:31:42;4.50;99.90
3919;DHT22;1974;48.670;8.994;2023-12-20T09:34:09;4.50;99.90
3919;DHT22;1974;48.670;8.994;2023-12-20T09:36:36;4.50;99.90
3919;DHT22;1974;48.670;8.994;2023-12-20T09:39:04;4.50;99.90
3919;DHT22;1974;48.670;8.994;2023-12-20T09:41:32;4.60;99.90
3919;DHT22;1974;48.670;8.994;2023-12-20T09:44:02;4.70;99.90
3919;DHT22;1974;48.670;8.994;2023-12-20T09:46:29;4.90;99.90
3919;DHT22;1974;48.670;8.994;2023-12-20T09:49:01;5.30;99.90
3919;DHT22;1974;48.670;8.994;2023-12-20T09:51:28;6.20;99.90
3919;DHT22;1974;48.670;8.994;2023-12-20T09:53:56;7.20;99.90
3919;DHT22;1974;48.670;8.994;2023-12-20T09:56:23;8.60;99.90
3919;DHT22;1974;48.670;8.994;2023-12-20T09:58:51;10.40;99.90
3919;DHT22;1974;48.670;8.994;2023-12-20T10:01:19;11.70;99.90
3919;DHT22;1974;48.670;8.994;2023-12-20T10:03:47;12.50;99.90
3919;DHT22;1974;48.670;8.994;2023-12-20T10:06:15;13.20;99.90
3919;DHT22;1974;48.670;8.994;2023-12-20T10:08:41;13.60;99.90
3919;DHT22;1974;48.670;8.994;2023-12-20T10:11:09;13.90;99.90
3919;DHT22;1974;48.670;8.994;2023-12-20T10:13:39;13.60;99.90
3919;DHT22;1974;48.670;8.994;2023-12-20T10:16:06;12.70;99.90
3919;DHT22;1974;48.670;8.994;2023-12-20T10:18:33;11.70;99.90
3919;DHT22;1974;48.670;8.994;2023-12-20T10:21:01;10.90;99.90
3919;DHT22;1974;48.670;8.994;2023-12-20T10:23:30;9.90;99.90
3919;DHT22;1974;48.670;8.994;2023-12-20T10:25:57;9.30;99.90
3919;DHT22;1974;48.670;8.994;2023-12-20T10:28:24;8.80;99.90
3919;DHT22;1974;48.670;8.994;2023-12-20T10:30:53;8.40;99.90
3919;DHT22;1974;48.670;8.994;2023-12-20T10:33:24;8.00;99.90
3919;DHT22;1974;48.670;8.994;2023-12-20T10:35:52;7.70;99.90
3919;DHT22;1974;48.670;8.994;2023-12-20T10:38:19;7.50;99.90
3919;DHT22;1974;48.670;8.994;2023-12-20T10:40:47;7.30;99.90
3919;DHT22;1974;48.670;8.994;2023-12-20T10:43:14;7.20;99.90
3919;DHT22;1974;48.670;8.994;2023-12-20T10:45:42;7.10;99.90
3919;DHT22;1974;48.670;8.994;2023-12-20T10:48:10;7.00;99.90
3919;DHT22;1974;48.670;8.994;2023-12-20T10:50:37;6.90;99.90
3919;DHT22;1974;48.670;8.994;2023-12-20T10:53:06;6.80;99.90
3919;DHT22;1974;48.670;8.994;2023-12-20T10:55:33;6.80;99.90
3919;DHT22;1974;48.670;8.994;2023-12-20T10:58:06;6.90;99.90
3919;DHT22;1974;48.670;8.994;2023-12-20T11:00:35;6.80;99.90
3919;DHT22;1974;48.670;8.994;2023-12-20T11:03:06;6.80;99.90
3919;DHT22;1974;48.670;8.994;2023-12-20T11:05:40;6.90;99.90
3919;DHT22;1974;48.670;8.994;2023-12-20T11:08:12;6.80;99.90
3919;DHT22;1974;48.670;8.994;2023-12-20T11:10:45;6.80;99.90
3919;DHT22;1974;48.670;8.994;2023-12-20T11:13:21;6.80;99.90
3919;DHT22;1974;48.670;8.994;2023-12-20T11:15:49;6.80;99.90
3919;DHT22;1974;48.670;8.994;2023-12-20T11:18:16;6.90;99.90
3919;DHT22;1974;48.670;8.994;2023-12-20T11:20:42;6.90;99.90
3919;DHT22;1974;48.670;8.994;2023-12-20T11:23:09;6.90;99.90
3919;DHT22;1974;48.670;8.994;2023-12-20T11:25:46;7.00;99.90
3919;DHT22;1974;48.670;8.994;2023-12-20T11:28:14;7.00;99.90
3919;DHT22;1974;48.670;8.994;2023-12-20T11:30:45;7.00;99.90
3919;DHT22;1974;48.670;8.994;2023-12-20T11:33:13;7.00;99.90
3919;DHT22;1974;48.670;8.994;2023-12-20T11:35:40;6.90;99.90
3919;DHT22;1974;48.670;8.994;2023-12-20T11:38:08;6.80;99.90
3919;DHT22;1974;48.670;8.994;2023-12-20T11:40:35;6.70;99.90
3919;DHT22;1974;48.670;8.994;2023-12-20T11:43:03;6.60;99.90
3919;DHT22;1974;48.670;8.994;2023-12-20T11:45:29;6.50;99.90
3919;DHT22;1974;48.670;8.994;2023-12-20T11:47:58;6.50;99.90
3919;DHT22;1974;48.670;8.994;2023-12-20T11:50:25;6.50;99.90
3919;DHT22;1974;48.670;8.994;2023-12-20T11:52:52;6.60;99.90
3919;DHT22;1974;48.670;8.994;2023-12-20T11:55:20;6.60;99.90
3919;DHT22;1974;48.670;8.994;2023-12-20T11:57:47;6.50;99.90
3919;DHT22;1974;48.670;8.994;2023-12-20T12:00:15;6.50;99.90
3919;DHT22;1974;48.670;8.994;2023-12-20T12:02:41;6.40;99.90
3919;DHT22;1974;48.670;8.994;2023-12-20T12:05:09;6.30;99.90
3919;DHT22;1974;48.670;8.994;2023-12-20T12:07:36;6.30;99.90
3919;DHT22;1974;48.670;8.994;2023-12-20T12:10:03;6.30;99.90
3919;DHT22;1974;48.670;8.994;2023-12-20T12:12:30;6.30;99.90
3919;DHT22;1974;48.670;8.994;2023-12-20T12:14:58;6.30;99.90
3919;DHT22;1974;48.670;8.994;2023-12-20T12:17:24;6.40;99.90
3919;DHT22;1974;48.670;8.994;2023-12-20T12:20:02;6.30;99.90
3919;DHT22;1974;48.670;8.994;2023-12-20T12:22:31;6.40;99.90
3919;DHT22;1974;48.670;8.994;2023-12-20T12:24:59;6.40;99.90
3919;DHT22;1974;48.670;8.994;2023-12-20T12:27:35;6.50;99.90
3919;DHT22;1974;48.670;8.994;2023-12-20T12:30:05;6.40;99.90
3919;DHT22;1974;48.670;8.994;2023-12-20T12:32:33;6.50;99.90
3919;DHT22;1974;48.670;8.994;2023-12-20T12:34:59;6.50;99.90
3919;DHT22;1974;48.670;8.994;2023-12-20T12:37:26;6.60;99.90
3919;DHT22;1974;48.670;8.994;2023-12-20T12:39:54;6.60;99.90
3919;DHT22;1974;48.670;8.994;2023-12-20T12:42:21;6.60;99.90
3919;DHT22;1974;48.670;8.994;2023-12-20T12:44:51;6.60;99.90
3919;DHT22;1974;48.670;8.994;2023-12-20T12:47:18;6.60;99.90
3919;DHT22;1974;48.670;8.994;2023-12-20T12:49:45;6.60;99.90
3919;DHT22;1974;48.670;8.994;2023-12-20T12:52:11;6.60;99.90
3919;DHT22;1974;48.670;8.994;2023-12-20T12:54:38;6.60;99.90
3919;DHT22;1974;48.670;8.994;2023-12-20T12:57:06;6.60;99.90
3919;DHT22;1974;48.670;8.994;2023-12-20T12:59:33;6.60;99.90
3919;DHT22;1974;48.670;8.994;2023-12-20T13:02:00;6.60;99.90
3919;DHT22;1974;48.670;8.994;2023-12-20T13:04:26;6.50;99.90
3919;DHT22;1974;48.670;8.994;2023-12-20T13:06:53;6.50;99.90
3919;DHT22;1974;48.670;8.994;2023-12-20T13:09:20;6.50;99.90
3919;DHT22;1974;48.670;8.994;2023-12-20T13:11:47;6.50;99.90
3919;DHT22;1974;48.670;8.994;2023-12-20T13:14:15;6.50;99.90
3919;DHT22;1974;48.670;8.994;2023-12-20T13:16:42;6.50;99.90
3919;DHT22;1974;48.670;8.994;2023-12-20T13:19:10;6.50;99.90
3919;DHT22;1974;48.670;8.994;2023-12-20T13:21:37;6.40;99.90
3919;DHT22;1974;48.670;8.994;2023-12-20T13:24:04;6.40;99.90
3919;DHT22;1974;48.670;8.994;2023-12-20T13:26:31;6.40;99.90
3919;DHT22;1974;48.670;8.994;2023-12-20T13:28:58;6.30;99.90
3919;DHT22;1974;48.670;8.994;2023-12-20T13:31:26;6.10;99.90
3919;DHT22;1974;48.670;8.994;2023-12-20T13:33:53;6.00;99.90
3919;DHT22;1974;48.670;8.994;2023-12-20T13:36:20;6.00;99.90
3919;DHT22;1974;48.670;8.994;2023-12-20T13:38:47;6.00;99.90
3919;DHT22;1974;48.670;8.994;2023-12-20T13:41:14;6.00;99.90
3919;DHT22;1974;48.670;8.994;2023-12-20T13:43:41;6.10;99.90
3919;DHT22;1974;48.670;8.994;2023-12-20T13:46:08;6.10;99.90
3919;DHT22;1974;48.670;8.994;2023-12-20T13:48:36;6.20;99.90
3919;DHT22;1974;48.670;8.994;2023-12-20T13:51:03;6.20;99.90
3919;DHT22;1974;48.670;8.994;2023-12-20T13:53:31;6.10;99.90
3919;DHT22;1974;48.670;8.994;2023-12-20T13:55:58;6.20;99.90
3919;DHT22;1974;48.670;8.994;2023-12-20T13:58:25;6.10;99.90
3919;DHT22;1974;48.670;8.994;2023-12-20T14:00:52;6.10;99.90
3919;DHT22;1974;48.670;8.994;2023-12-20T14:03:18;6.10;99.90
3919;DHT22;1974;48.670;8.994;2023-12-20T14:05:47;6.10;99.90
3919;DHT22;1974;48.670;8.994;2023-12-20T14:08:14;6.00;99.90
3919;DHT22;1974;48.670;8.994;2023-12-20T14:10:41;6.00;99.90
3919;DHT22;1974;48.670;8.994;2023-12-20T14:13:07;6.00;99.90
3919;DHT22;1974;48.670;8.994;2023-12-20T14:15:34;6.00;99.90
3919;DHT22;1974;48.670;8.994;2023-12-20T14:18:04;6.00;99.90
3919;DHT22;1974;48.670;8.994;2023-12-20T14:20:31;5.80;99.90
3919;DHT22;1974;48.670;8.994;2023-12-20T14:23:01;5.80;99.90
3919;DHT22;1974;48.670;8.994;2023-12-20T14:25:28;5.80;99.90
3919;DHT22;1974;48.670;8.994;2023-12-20T14:27:55;5.70;99.90
3919;DHT22;1974;48.670;8.994;2023-12-20T14:30:22;5.60;99.90
3919;DHT22;1974;48.670;8.994;2023-12-20T14:32:49;5.60;99.90
3919;DHT22;1974;48.670;8.994;2023-12-20T14:35:16;5.50;99.90
3919;DHT22;1974;48.670;8.994;2023-12-20T14:37:44;5.50;99.90
3919;DHT22;1974;48.670;8.994;2023-12-20T14:40:12;5.50;99.90
3919;DHT22;1974;48.670;8.994;2023-12-20T14:42:41;5.40;99.90
3919;DHT22;1974;48.670;8.994;2023-12-20T14:45:09;5.30;99.90
3919;DHT22;1974;48.670;8.994;2023-12-20T14:47:36;5.30;99.90
3919;DHT22;1974;48.670;8.994;2023-12-20T14:50:03;5.20;99.90
3919;DHT22;1974;48.670;8.994;2023-12-20T14:52:30;5.20;99.90
3919;DHT22;1974;48.670;8.994;2023-12-20T14:54:57;5.20;99.90
3919;DHT22;1974;48.670;8.994;2023-12-20T14:57:25;5.20;99.90
3919;DHT22;1974;48.670;8.994;2023-12-20T14:59:51;5.20;99.90
3919;DHT22;1974;48.670;8.994;2023-12-20T15:02:18;5.10;99.90
3919;DHT22;1974;48.670;8.994;2023-12-20T15:04:45;5.10;99.90
3919;DHT22;1974;48.670;8.994;2023-12-20T15:07:11;5.10;99.90
3919;DHT22;1974;48.670;8.994;2023-12-20T15:09:38;5.10;99.90
3919;DHT22;1974;48.670;8.994;2023-12-20T15:12:05;5.10;99.90
3919;DHT22;1974;48.670;8.994;2023-12-20T15:14:34;5.10;99.90
3919;DHT22;1974;48.670;8.994;2023-12-20T15:17:00;5.10;99.90
3919;DHT22;1974;48.670;8.994;2023-12-20T15:19:27;5.10;99.90
3919;DHT22;1974;48.670;8.994;2023-12-20T15:21:54;5.00;99.90
3919;DHT22;1974;48.670;8.994;2023-12-20T15:24:20;5.00;99.90
3919;DHT22;1974;48.670;8.994;2023-12-20T15:26:54;4.90;99.90
3919;DHT22;1974;48.670;8.994;2023-12-20T15:29:21;4.90;99.90
3919;DHT22;1974;48.670;8.994;2023-12-20T15:31:49;4.70;99.90
3919;DHT22;1974;48.670;8.994;2023-12-20T15:34:16;4.60;99.90
3919;DHT22;1974;48.670;8.994;2023-12-20T15:36:43;4.50;99.90
3919;DHT22;1974;48.670;8.994;2023-12-20T15:39:09;4.50;99.90
3919;DHT22;1974;48.670;8.994;2023-12-20T15:41:39;4.60;99.90
3919;DHT22;1974;48.670;8.994;2023-12-20T15:44:06;4.60;99.90
3919;DHT22;1974;48.670;8.994;2023-12-20T15:46:33;4.60;99.90
3919;DHT22;1974;48.670;8.994;2023-12-20T15:49:01;4.60;99.90
3919;DHT22;1974;48.670;8.994;2023-12-20T15:51:27;4.60;99.90
3919;DHT22;1974;48.670;8.994;2023-12-20T15:53:54;4.60;99.90
3919;DHT22;1974;48.670;8.994;2023-12-20T15:56:22;4.60;99.90
3919;DHT22;1974;48.670;8.994;2023-12-20T15:58:49;4.60;99.90
3919;DHT22;1974;48.670;8.994;2023-12-20T16:01:17;4.60;99.90
3919;DHT22;1974;48.670;8.994;2023-12-20T16:03:44;4.60;99.90
3919;DHT22;1974;48.670;8.994;2023-12-20T16:06:12;4.60;99.90
3919;DHT22;1974;48.670;8.994;2023-12-20T16:08:39;4.60;99.90
3919;DHT22;1974;48.670;8.994;2023-12-20T16:11:05;4.70;99.90
3919;DHT22;1974;48.670;8.994;2023-12-20T16:13:32;4.70;99.90
3919;DHT22;1974;48.670;8.994;2023-12-20T16:16:01;4.60;99.90